Bad Goisen, Austria
Current Conditions -  °F | °C
As of 6:50 AM on Sunday 21 Dec 2014 (Local Time) from LOWS Reporting Station
Rain Showers Rain Showers  
Wind Chill: 32°   Ceiling: 3000
Heat Index: 39°   Visibility: 6mi
Dew Point: 34°   Wind: 10mph
Humidity: 81%   Direction: 300°WNW
Pressure: 30.42"   Gusts: NA
Location:  47.65°N, 13.63°E
Report Text: LOWS 210450Z 30009KT 250V320 9999 -SHRA FEW014 BKN030 04/01 Q1030 NOSIG
Loading
Personal Weather Stations






























Interactive Weather Map New forecast layout! Learn more

10-Day Weather Forecast

Advertisements
Track Severe Weather on mobile